Time;durP1;ratioP1;P1;durP2;ratioP2;P2;SDS_P1;SDS_P2;PMS_P1;PMS_P2;Temp;Humidity;BMP_temperature;BMP_pressure;BME280_temperature;BME280_humidity;BME280_pressure;Samples;Min_cycle;Max_cycle;Signal;HPM_P1;HPM_P2
2023/07/07 00:00:25;;;;;;;7.90;4.63;;;17.40;79.40;;;;;;5034915;28;20472;-71
2023/07/07 00:02:52;;;;;;;7.50;4.43;;;17.40;79.00;;;;;;5035315;28;20856;-70
2023/07/07 00:05:19;;;;;;;6.27;4.43;;;17.30;79.00;;;;;;5034823;28;20480;-70
2023/07/07 00:07:48;;;;;;;7.37;4.63;;;17.20;78.90;;;;;;5034978;28;20443;-71
2023/07/07 00:10:16;;;;;;;7.80;5.40;;;17.20;79.00;;;;;;5034703;28;20440;-70
2023/07/07 00:12:43;;;;;;;6.27;4.93;;;17.10;79.60;;;;;;5034945;28;20467;-71
2023/07/07 00:15:10;;;;;;;7.60;4.40;;;17.00;79.70;;;;;;5034961;28;20904;-70
2023/07/07 00:17:37;;;;;;;6.97;4.63;;;17.00;79.40;;;;;;5034712;28;20522;-71
2023/07/07 00:20:08;;;;;;;6.33;4.10;;;16.90;77.30;;;;;;5034494;28;21000;-70
2023/07/07 00:22:35;;;;;;;5.27;4.07;;;16.80;76.90;;;;;;5034984;28;20436;-71
2023/07/07 00:25:04;;;;;;;6.73;4.27;;;16.70;77.90;;;;;;5034701;28;20542;-71
2023/07/07 00:27:31;;;;;;;6.10;3.67;;;16.70;79.10;;;;;;5034609;28;20449;-71
2023/07/07 00:29:58;;;;;;;6.60;4.10;;;16.60;80.50;;;;;;5034642;28;20896;-70
2023/07/07 00:32:25;;;;;;;6.70;4.97;;;16.60;79.60;;;;;;5034581;28;20471;-71
2023/07/07 00:34:52;;;;;;;7.73;4.97;;;16.60;79.00;;;;;;5034507;28;20444;-71
2023/07/07 00:37:19;;;;;;;6.30;4.63;;;16.50;78.40;;;;;;5034194;28;20553;-70
2023/07/07 00:39:45;;;;;;;9.83;5.50;;;16.50;80.30;;;;;;5034127;28;20468;-70
2023/07/07 00:42:14;;;;;;;8.07;4.70;;;16.40;81.50;;;;;;5034434;28;20878;-70
2023/07/07 00:45:17;;;;;;;7.03;4.60;;;16.50;82.70;;;;;;5034007;28;20980;-71
2023/07/07 00:47:49;;;;;;;6.90;4.60;;;16.50;83.90;;;;;;5034320;28;20445;-70
2023/07/07 00:50:19;;;;;;;6.40;4.40;;;16.50;83.80;;;;;;5034122;28;21004;-70
2023/07/07 00:52:46;;;;;;;6.40;4.50;;;16.50;83.50;;;;;;5034035;28;20479;-71
2023/07/07 00:55:19;;;;;;;7.83;4.30;;;16.50;83.50;;;;;;5034150;28;20433;-71
2023/07/07 00:57:48;;;;;;;7.63;4.80;;;16.50;83.40;;;;;;5033706;28;21029;-70
2023/07/07 01:00:15;;;;;;;7.10;4.43;;;16.40;83.10;;;;;;5034051;28;20529;-71
2023/07/07 01:02:50;;;;;;;6.50;4.63;;;16.40;82.90;;;;;;5034113;28;20471;-71
2023/07/07 01:05:17;;;;;;;6.70;4.53;;;16.40;82.40;;;;;;5033728;28;20432;-70
2023/07/07 01:07:51;;;;;;;6.50;4.97;;;16.40;82.20;;;;;;5033888;28;20450;-71
2023/07/07 01:10:19;;;;;;;5.73;3.90;;;16.30;82.50;;;;;;5033353;28;20428;-70
2023/07/07 01:12:49;;;;;;;8.30;4.67;;;16.30;82.40;;;;;;5033892;28;20470;-70
2023/07/07 01:15:16;;;;;;;8.57;4.50;;;16.20;81.80;;;;;;5034210;28;20439;-70
2023/07/07 01:17:57;;;;;;;7.03;4.03;;;16.10;81.80;;;;;;5033768;28;20601;-70
2023/07/07 01:20:32;;;;;;;6.20;4.70;;;16.10;82.00;;;;;;5033933;28;20443;-70
2023/07/07 01:23:38;;;;;;;6.87;5.00;;;16.00;81.80;;;;;;5033440;28;20427;-70
2023/07/07 01:26:22;;;;;;;12.60;6.20;;;15.90;81.80;;;;;;5005773;28;20441;-71
2023/07/07 01:29:14;;;;;;;11.70;5.50;;;15.80;82.20;;;;;;5033770;28;20431;-70
2023/07/07 01:31:47;;;;;;;7.27;5.10;;;15.80;83.20;;;;;;5033919;28;20426;-70
2023/07/07 01:34:16;;;;;;;12.63;6.00;;;15.70;83.10;;;;;;5033637;28;20463;-70
2023/07/07 01:36:43;;;;;;;5.70;4.27;;;15.70;83.20;;;;;;5033298;28;20439;-71
2023/07/07 01:39:11;;;;;;;6.93;4.80;;;15.60;83.20;;;;;;5033478;28;20506;-70
2023/07/07 01:41:47;;;;;;;7.53;5.33;;;15.60;84.40;;;;;;5033587;28;20438;-70
2023/07/07 01:44:19;;;;;;;6.27;4.57;;;15.60;85.20;;;;;;5033687;28;20428;-71
2023/07/07 01:46:56;;;;;;;9.13;4.20;;;15.50;86.10;;;;;;5033577;28;20898;-70
2023/07/07 01:49:27;;;;;;;6.87;4.33;;;15.60;87.00;;;;;;5033337;28;20502;-70
2023/07/07 01:52:02;;;;;;;8.80;4.47;;;15.60;87.70;;;;;;5033106;28;20468;-71
2023/07/07 01:54:32;;;;;;;6.10;4.17;;;15.60;87.60;;;;;;5033183;28;20489;-70
2023/07/07 01:57:01;;;;;;;7.27;4.47;;;15.70;87.70;;;;;;5033098;28;20933;-70
2023/07/07 01:59:28;;;;;;;8.10;5.60;;;15.60;87.50;;;;;;5033352;28;20503;-70
2023/07/07 02:01:57;;;;;;;5.57;3.80;;;15.70;86.50;;;;;;5033349;28;20493;-71
2023/07/07 02:04:24;;;;;;;4.97;4.07;;;15.60;85.70;;;;;;5033060;28;20444;-71
2023/07/07 02:06:51;;;;;;;5.90;4.30;;;15.60;85.30;;;;;;5033302;28;20471;-71
2023/07/07 02:09:18;;;;;;;7.00;4.20;;;15.60;84.60;;;;;;5033336;28;20498;-70
2023/07/07 02:11:45;;;;;;;6.50;3.87;;;15.60;83.60;;;;;;5033224;28;20775;-71
2023/07/07 02:14:12;;;;;;;7.07;4.20;;;15.50;82.60;;;;;;5033247;28;20830;-70
2023/07/07 02:16:39;;;;;;;10.50;4.80;;;15.50;83.70;;;;;;5032991;28;20848;-70
2023/07/07 02:19:14;;;;;;;7.00;4.30;;;15.40;84.80;;;;;;5032863;28;20511;-70
2023/07/07 02:21:41;;;;;;;7.00;4.80;;;15.40;85.70;;;;;;5034138;28;20447;-70
2023/07/07 02:24:07;;;;;;;8.43;4.80;;;15.40;85.40;;;;;;5036984;28;20440;-70
2023/07/07 02:26:35;;;;;;;6.70;4.07;;;15.30;84.80;;;;;;5036943;28;20443;-70
2023/07/07 02:29:02;;;;;;;6.27;4.07;;;15.30;84.50;;;;;;5036903;28;20448;-70
2023/07/07 02:31:29;;;;;;;5.77;4.27;;;15.20;84.40;;;;;;5036816;28;20440;-71
2023/07/07 02:33:56;;;;;;;5.73;3.30;;;15.20;85.00;;;;;;5036865;28;20478;-70
2023/07/07 02:36:28;;;;;;;7.40;4.70;;;15.20;85.20;;;;;;5036484;28;20471;-70
2023/07/07 02:38:55;;;;;;;7.90;4.80;;;15.10;85.30;;;;;;5036385;28;21048;-70
2023/07/07 02:41:23;;;;;;;6.67;4.20;;;15.10;85.40;;;;;;5036678;28;20495;-71
2023/07/07 02:43:50;;;;;;;9.23;4.77;;;15.10;85.60;;;;;;5036398;28;20957;-72
2023/07/07 02:46:17;;;;;;;9.10;4.70;;;15.10;86.20;;;;;;5036841;28;20440;-70
2023/07/07 02:48:43;;;;;;;7.60;4.13;;;15.10;85.70;;;;;;5036384;28;20480;-71
2023/07/07 02:51:11;;;;;;;8.60;4.10;;;15.00;85.60;;;;;;5036533;28;20503;-70
2023/07/07 02:53:40;;;;;;;7.40;3.90;;;15.00;85.00;;;;;;5036397;28;20441;-70
2023/07/07 02:56:07;;;;;;;7.47;4.63;;;14.90;84.90;;;;;;5036412;28;20467;-70
2023/07/07 02:58:34;;;;;;;5.90;4.33;;;14.90;85.10;;;;;;5036463;28;20873;-71
2023/07/07 03:01:10;;;;;;;6.17;4.17;;;14.80;85.30;;;;;;5035990;28;20475;-70
2023/07/07 03:03:41;;;;;;;6.27;4.40;;;14.80;85.60;;;;;;5036188;28;20443;-70
2023/07/07 03:06:11;;;;;;;5.23;3.40;;;14.80;86.50;;;;;;5036029;28;20503;-70
2023/07/07 03:08:39;;;;;;;7.73;3.90;;;14.80;85.80;;;;;;5036111;28;20449;-70
2023/07/07 03:11:08;;;;;;;7.83;3.60;;;14.70;85.70;;;;;;5036160;28;20496;-70
2023/07/07 03:13:36;;;;;;;7.23;4.40;;;14.70;85.30;;;;;;5036137;28;20469;-71
2023/07/07 03:16:10;;;;;;;7.90;4.57;;;14.70;86.00;;;;;;5036133;28;20478;-71
2023/07/07 03:18:37;;;;;;;6.57;4.03;;;14.70;86.40;;;;;;5035911;28;20553;-70
2023/07/07 03:21:04;;;;;;;6.70;4.33;;;14.60;86.50;;;;;;5036068;28;20439;-71
2023/07/07 03:23:31;;;;;;;6.00;4.10;;;14.60;85.60;;;;;;5035868;28;20444;-70
2023/07/07 03:26:07;;;;;;;9.20;4.60;;;14.60;85.40;;;;;;5036057;28;20448;-71
2023/07/07 03:28:34;;;;;;;5.93;4.00;;;14.50;85.70;;;;;;5035478;28;20466;-71
2023/07/07 03:31:08;;;;;;;7.17;4.20;;;14.50;85.40;;;;;;5035779;28;20504;-70
2023/07/07 03:33:35;;;;;;;8.57;4.33;;;14.40;86.10;;;;;;5035657;28;20836;-70
2023/07/07 03:36:02;;;;;;;6.23;4.07;;;14.40;86.50;;;;;;5035606;28;20443;-70
2023/07/07 03:38:29;;;;;;;6.37;4.80;;;14.30;86.70;;;;;;5035650;28;20802;-70
2023/07/07 03:40:56;;;;;;;8.53;4.00;;;14.40;86.70;;;;;;5035343;28;20457;-70
2023/07/07 03:43:24;;;;;;;7.30;4.33;;;14.30;86.70;;;;;;5035498;28;20473;-75
2023/07/07 03:45:51;;;;;;;8.30;4.40;;;14.30;86.70;;;;;;5035195;28;20475;-70
2023/07/07 03:48:18;;;;;;;6.63;4.47;;;14.30;86.60;;;;;;5035754;28;20518;-71
2023/07/07 03:50:55;;;;;;;6.37;4.60;;;14.30;86.90;;;;;;5035462;28;20515;-71
2023/07/07 03:53:21;;;;;;;6.17;3.97;;;14.30;86.70;;;;;;5035012;28;20458;-69
2023/07/07 03:55:48;;;;;;;8.00;4.60;;;14.30;86.40;;;;;;5035302;28;20442;-69
2023/07/07 03:58:15;;;;;;;7.83;4.60;;;14.30;87.10;;;;;;5035269;28;20477;-69
2023/07/07 04:00:45;;;;;;;7.80;4.10;;;14.30;88.40;;;;;;5035111;28;20477;-69
2023/07/07 04:03:12;;;;;;;5.80;3.80;;;14.30;89.60;;;;;;5034841;28;20999;-70
2023/07/07 04:05:41;;;;;;;6.43;4.60;;;14.30;89.90;;;;;;5035346;28;20958;-70
2023/07/07 04:08:08;;;;;;;5.37;3.43;;;14.40;89.80;;;;;;5035010;28;20444;-69
2023/07/07 04:10:35;;;;;;;5.03;3.57;;;14.50;89.00;;;;;;5034645;28;20487;-70
2023/07/07 04:13:02;;;;;;;5.37;3.80;;;14.50;89.00;;;;;;5035134;28;20440;-69
2023/07/07 04:15:29;;;;;;;6.33;3.90;;;14.60;88.70;;;;;;5035996;28;20473;-69
2023/07/07 04:17:58;;;;;;;5.63;3.60;;;14.60;87.80;;;;;;5024595;28;20500;-70
2023/07/07 04:20:25;;;;;;;6.27;3.73;;;14.70;87.80;;;;;;5028192;28;20566;-69
2023/07/07 04:22:52;;;;;;;5.77;4.20;;;14.70;87.60;;;;;;5027309;28;20494;-69
2023/07/07 04:25:19;;;;;;;6.70;4.50;;;14.70;87.20;;;;;;5027671;28;20541;-69
2023/07/07 04:27:46;;;;;;;7.10;4.03;;;14.70;85.80;;;;;;5030469;28;20486;-71
2023/07/07 04:30:13;;;;;;;5.33;3.97;;;14.60;85.00;;;;;;5043462;28;20479;-70
2023/07/07 04:32:41;;;;;;;9.30;4.20;;;14.70;86.00;;;;;;5051830;28;20477;-69
2023/07/07 04:35:10;;;;;;;7.90;4.07;;;14.60;85.60;;;;;;5051605;28;20466;-69
2023/07/07 04:37:36;;;;;;;9.53;3.93;;;14.60;86.60;;;;;;5043598;28;20507;-70
2023/07/07 04:40:04;;;;;;;5.17;3.80;;;14.50;87.50;;;;;;5033949;28;20914;-70
2023/07/07 04:42:31;;;;;;;6.60;4.17;;;14.50;88.70;;;;;;5033522;28;20442;-69
2023/07/07 04:44:58;;;;;;;11.10;4.30;;;14.50;88.70;;;;;;5032874;28;20445;-69
2023/07/07 04:47:25;;;;;;;7.43;4.00;;;14.60;89.30;;;;;;5033509;28;20477;-70
2023/07/07 04:49:52;;;;;;;6.27;4.70;;;14.60;89.60;;;;;;5033588;28;20476;-70
2023/07/07 04:52:20;;;;;;;7.33;4.20;;;14.60;89.40;;;;;;5033005;28;20937;-70
2023/07/07 04:54:49;;;;;;;8.60;4.23;;;14.70;90.00;;;;;;5033610;28;20445;-69
2023/07/07 04:57:16;;;;;;;6.20;4.30;;;14.80;90.40;;;;;;5032924;28;20441;-70
2023/07/07 04:59:43;;;;;;;6.37;5.30;;;14.80;90.70;;;;;;5032589;28;20480;-74
2023/07/07 05:02:10;;;;;;;7.00;4.83;;;14.90;90.80;;;;;;5033143;28;20482;-69
2023/07/07 05:04:37;;;;;;;7.43;4.70;;;15.00;91.00;;;;;;5033515;28;20482;-69
2023/07/07 05:07:04;;;;;;;11.50;4.80;;;15.10;91.30;;;;;;5033094;28;20469;-70
2023/07/07 05:09:33;;;;;;;8.73;5.57;;;15.20;91.50;;;;;;5032898;28;20929;-69
2023/07/07 05:11:59;;;;;;;6.83;4.80;;;15.30;91.50;;;;;;5029815;28;20995;-70
2023/07/07 05:14:27;;;;;;;7.73;5.00;;;15.30;91.50;;;;;;5039474;28;20493;-71
2023/07/07 05:16:54;;;;;;;6.60;4.57;;;15.40;91.50;;;;;;5050690;28;20442;-69
2023/07/07 05:19:21;;;;;;;7.30;4.93;;;15.50;91.70;;;;;;5050603;28;20495;-69
2023/07/07 05:21:48;;;;;;;8.87;5.30;;;15.60;91.80;;;;;;5031471;28;20479;-70
2023/07/07 05:24:15;;;;;;;7.00;4.40;;;15.80;91.80;;;;;;5032541;28;20451;-70
2023/07/07 05:26:44;;;;;;;7.13;4.93;;;15.90;91.80;;;;;;5028827;28;20451;-69
2023/07/07 05:29:11;;;;;;;8.40;5.17;;;16.00;91.70;;;;;;5036232;28;20478;-70
2023/07/07 05:31:38;;;;;;;6.83;4.67;;;16.10;91.60;;;;;;5029530;28;20480;-70
2023/07/07 05:34:04;;;;;;;8.67;5.37;;;16.20;91.80;;;;;;5032161;28;20450;-72
2023/07/07 05:36:31;;;;;;;6.83;4.80;;;16.30;91.60;;;;;;5032294;28;20448;-70
2023/07/07 05:38:58;;;;;;;8.07;5.30;;;16.50;91.60;;;;;;5032702;28;20484;-70
2023/07/07 05:41:25;;;;;;;6.87;4.17;;;16.60;91.10;;;;;;5032408;28;20479;-69
2023/07/07 05:43:55;;;;;;;7.00;4.83;;;16.80;90.90;;;;;;5032204;28;20474;-70
2023/07/07 05:46:22;;;;;;;7.90;5.23;;;16.90;90.80;;;;;;5032781;28;20447;-69
2023/07/07 05:48:49;;;;;;;6.80;4.80;;;17.00;90.80;;;;;;5030115;28;20498;-70
2023/07/07 05:51:18;;;;;;;10.00;4.93;;;17.10;90.50;;;;;;5032431;28;20444;-74
2023/07/07 05:53:47;;;;;;;10.53;5.20;;;17.10;86.50;;;;;;5032017;28;20999;-69
2023/07/07 05:56:18;;;;;;;11.13;6.20;;;17.20;85.60;;;;;;5046023;28;20448;-70
2023/07/07 05:58:45;;;;;;;9.77;4.20;;;17.30;85.00;;;;;;5053021;28;20925;-70
2023/07/07 06:01:14;;;;;;;10.50;5.57;;;17.30;85.20;;;;;;5036610;28;20451;-70
2023/07/07 06:03:41;;;;;;;7.10;4.60;;;17.40;84.60;;;;;;5036575;28;20822;-71
2023/07/07 06:06:08;;;;;;;7.70;4.90;;;17.50;84.30;;;;;;5033900;28;20445;-71
2023/07/07 06:08:35;;;;;;;8.10;5.10;;;17.60;84.20;;;;;;5047588;28;20768;-71
2023/07/07 06:11:02;;;;;;;6.20;4.47;;;17.70;84.50;;;;;;5045792;28;20491;-70
2023/07/07 06:13:29;;;;;;;9.30;4.90;;;17.80;84.70;;;;;;5036490;28;20475;-71
2023/07/07 06:15:56;;;;;;;6.53;4.00;;;18.00;83.40;;;;;;5036844;28;20493;-71
2023/07/07 06:18:25;;;;;;;8.17;5.37;;;18.00;83.90;;;;;;5036816;28;20494;-71
2023/07/07 06:20:53;;;;;;;7.03;4.70;;;18.10;83.80;;;;;;5037017;28;20881;-70
2023/07/07 06:23:20;;;;;;;8.80;4.83;;;18.20;83.20;;;;;;5036968;28;20445;-71
2023/07/07 06:25:48;;;;;;;7.17;4.70;;;18.30;82.40;;;;;;5037165;28;20437;-71
2023/07/07 06:28:15;;;;;;;6.57;4.33;;;18.30;82.40;;;;;;5036667;28;20440;-71
2023/07/07 06:30:42;;;;;;;7.60;4.90;;;18.50;83.30;;;;;;5036913;28;20449;-71
2023/07/07 06:33:09;;;;;;;7.90;5.07;;;18.60;83.40;;;;;;5036617;28;20443;-71
2023/07/07 06:35:37;;;;;;;8.10;4.87;;;18.70;82.90;;;;;;5036931;28;20472;-70
2023/07/07 06:38:04;;;;;;;7.13;4.93;;;18.80;83.30;;;;;;5036750;28;20439;-71
2023/07/07 06:40:31;;;;;;;5.90;4.47;;;19.00;84.50;;;;;;5036719;28;20838;-71
2023/07/07 06:42:58;;;;;;;7.57;5.13;;;19.10;83.80;;;;;;5036777;28;20526;-71
2023/07/07 06:45:27;;;;;;;7.27;4.33;;;19.20;83.80;;;;;;5036817;28;20464;-71
2023/07/07 06:47:54;;;;;;;7.37;4.83;;;19.30;82.80;;;;;;5036659;28;20448;-71
2023/07/07 06:50:28;;;;;;;8.77;5.30;;;19.40;81.20;;;;;;5036598;28;20499;-70
2023/07/07 06:52:56;;;;;;;6.33;3.63;;;19.50;81.20;;;;;;5036203;28;20954;-71
2023/07/07 06:55:23;;;;;;;7.30;5.03;;;19.60;81.60;;;;;;5036505;28;20495;-71
2023/07/07 06:57:51;;;;;;;8.00;4.97;;;19.80;79.70;;;;;;5036499;28;20470;-71
2023/07/07 07:00:18;;;;;;;7.33;4.30;;;20.00;79.10;;;;;;5036366;28;20506;-71
2023/07/07 07:02:46;;;;;;;6.80;5.03;;;20.00;77.30;;;;;;5036414;28;20519;-71
2023/07/07 07:05:13;;;;;;;11.47;4.90;;;20.20;77.30;;;;;;5036449;28;20524;-71
2023/07/07 07:07:41;;;;;;;7.77;3.90;;;20.20;77.50;;;;;;5035613;28;20470;-71
2023/07/07 07:10:11;;;;;;;6.47;4.10;;;20.40;78.60;;;;;;5036323;28;20441;-71
2023/07/07 07:12:38;;;;;;;7.63;4.80;;;20.50;77.90;;;;;;5035970;28;20422;-71
2023/07/07 07:15:06;;;;;;;8.30;4.90;;;20.60;76.00;;;;;;5035961;28;20439;-71
2023/07/07 07:17:33;;;;;;;8.03;5.10;;;20.70;74.30;;;;;;5036147;28;20438;-71
2023/07/07 07:20:00;;;;;;;7.20;4.73;;;20.70;72.50;;;;;;5035700;28;20972;-71
2023/07/07 07:22:27;;;;;;;5.83;4.00;;;20.90;72.00;;;;;;5036000;28;20774;-71
2023/07/07 07:24:54;;;;;;;6.63;3.63;;;21.00;70.50;;;;;;5035992;28;20491;-71
2023/07/07 07:27:22;;;;;;;10.97;5.13;;;21.10;71.30;;;;;;5035946;28;20772;-71
2023/07/07 07:29:51;;;;;;;7.90;4.77;;;21.20;71.90;;;;;;5035899;28;20446;-71
2023/07/07 07:32:18;;;;;;;7.00;4.43;;;21.30;71.50;;;;;;5035507;28;20446;-71
2023/07/07 07:34:45;;;;;;;11.53;5.67;;;21.40;70.50;;;;;;5035820;28;20447;-71
2023/07/07 07:37:12;;;;;;;9.83;3.80;;;21.50;67.90;;;;;;5035766;28;20442;-71
2023/07/07 07:39:39;;;;;;;6.47;3.80;;;21.50;68.00;;;;;;5035703;28;20506;-71
2023/07/07 07:42:07;;;;;;;7.80;4.93;;;21.70;69.30;;;;;;5035653;28;20843;-71
2023/07/07 07:44:35;;;;;;;7.53;4.70;;;21.80;68.00;;;;;;5035292;28;20560;-71
2023/07/07 07:47:02;;;;;;;7.10;4.37;;;21.90;66.50;;;;;;5035290;28;20922;-71
2023/07/07 07:49:29;;;;;;;8.37;4.73;;;22.00;65.80;;;;;;5035117;28;20505;-71
2023/07/07 07:51:56;;;;;;;6.10;3.80;;;22.10;64.00;;;;;;5035367;28;20447;-71
2023/07/07 07:54:24;;;;;;;7.00;5.13;;;22.30;66.00;;;;;;5035350;28;20796;-71
2023/07/07 07:56:52;;;;;;;9.40;4.90;;;22.40;65.80;;;;;;5035035;28;20505;-71
2023/07/07 07:59:19;;;;;;;6.37;4.17;;;22.60;66.30;;;;;;5035358;28;20483;-71
2023/07/07 08:01:47;;;;;;;7.23;4.80;;;22.70;65.80;;;;;;5035341;28;20446;-71
2023/07/07 08:04:14;;;;;;;8.00;5.00;;;22.80;64.00;;;;;;5035231;28;20447;-71
2023/07/07 08:06:42;;;;;;;10.07;4.20;;;22.90;62.90;;;;;;5035159;28;20452;-71
2023/07/07 08:09:09;;;;;;;8.17;4.50;;;23.00;64.30;;;;;;5035120;28;20442;-71
2023/07/07 08:12:12;;;;;;;8.17;4.90;;;23.20;63.90;;;;;;5034756;28;20463;-71
2023/07/07 08:14:39;;;;;;;8.60;6.10;;;23.40;63.10;;;;;;4954781;29;20454;-71
2023/07/07 08:17:09;;;;;;;10.00;4.70;;;23.50;62.30;;;;;;4954600;29;20962;-71
2023/07/07 08:19:38;;;;;;;7.07;4.70;;;23.60;60.10;;;;;;4991953;28;20502;-71
2023/07/07 08:22:07;;;;;;;10.07;5.20;;;23.80;55.40;;;;;;5034496;28;20491;-71
2023/07/07 08:24:37;;;;;;;8.40;4.97;;;24.00;54.00;;;;;;5034489;28;20475;-71
2023/07/07 08:27:05;;;;;;;8.33;3.83;;;24.00;53.50;;;;;;5034996;28;20463;-71
2023/07/07 08:29:32;;;;;;;9.20;5.33;;;24.10;53.00;;;;;;5034747;28;20448;-71
2023/07/07 08:31:59;;;;;;;8.30;4.50;;;24.20;53.40;;;;;;5034663;28;20452;-71
2023/07/07 08:34:28;;;;;;;10.83;5.13;;;24.40;53.80;;;;;;5034359;28;20448;-71
2023/07/07 08:36:59;;;;;;;7.57;4.93;;;24.50;52.70;;;;;;5034295;28;20476;-72
2023/07/07 08:39:28;;;;;;;6.80;4.70;;;24.60;52.40;;;;;;5034524;28;20429;-71
2023/07/07 08:41:59;;;;;;;8.57;4.30;;;24.70;50.80;;;;;;5034118;28;20538;-70
2023/07/07 08:44:27;;;;;;;7.43;4.87;;;24.80;49.40;;;;;;5034152;28;20435;-71
2023/07/07 08:47:08;;;;;;;7.37;4.50;;;24.90;49.60;;;;;;5034562;28;20470;-71
2023/07/07 08:49:46;;;;;;;7.10;4.50;;;24.90;50.00;;;;;;5034367;28;20479;-71
2023/07/07 08:52:30;;;;;;;6.53;4.70;;;25.10;49.90;;;;;;5033997;28;20432;-71
2023/07/07 08:55:06;;;;;;;6.60;4.90;;;25.20;49.20;;;;;;5034375;28;20514;-71
2023/07/07 08:57:38;;;;;;;6.83;4.80;;;25.20;47.80;;;;;;5034484;28;20794;-71
2023/07/07 09:00:15;;;;;;;7.60;4.60;;;25.30;49.00;;;;;;5034345;28;20505;-71
2023/07/07 09:03:13;;;;;;;6.70;4.27;;;25.30;47.30;;;;;;5034194;28;20426;-71
2023/07/07 09:05:50;;;;;;;7.00;4.50;;;25.50;48.90;;;;;;5034050;28;20442;-71
2023/07/07 09:08:24;;;;;;;6.10;4.67;;;25.60;47.20;;;;;;5033898;28;20422;-71
2023/07/07 09:11:02;;;;;;;7.33;5.27;;;25.60;46.60;;;;;;5034129;28;20960;-71
2023/07/07 09:13:32;;;;;;;9.00;4.23;;;25.70;46.30;;;;;;5033907;28;20434;-71
2023/07/07 09:16:10;;;;;;;8.10;5.20;;;25.80;48.00;;;;;;5033976;28;20524;-71
2023/07/07 09:18:43;;;;;;;6.80;4.13;;;25.90;47.30;;;;;;5034029;28;20832;-71
2023/07/07 09:21:22;;;;;;;10.00;4.60;;;26.10;46.40;;;;;;5033922;28;20470;-71
2023/07/07 09:23:53;;;;;;;7.20;4.50;;;26.10;45.60;;;;;;5033899;28;20483;-71
2023/07/07 09:26:27;;;;;;;5.63;4.00;;;26.20;45.80;;;;;;5034025;28;20464;-71
2023/07/07 09:28:56;;;;;;;8.50;4.10;;;26.30;44.70;;;;;;5033759;28;20466;-71
2023/07/07 09:31:31;;;;;;;7.30;4.53;;;26.30;44.00;;;;;;5033473;28;20480;-71
2023/07/07 09:34:02;;;;;;;7.30;4.70;;;26.40;43.00;;;;;;5033673;28;20422;-71
2023/07/07 09:36:36;;;;;;;11.40;5.40;;;26.50;41.80;;;;;;5033776;28;20426;-71
2023/07/07 09:39:17;;;;;;;6.57;4.20;;;26.50;42.20;;;;;;5033523;28;20433;-68
2023/07/07 09:41:55;;;;;;;7.40;4.70;;;26.60;43.50;;;;;;5033322;28;20462;-71
2023/07/07 09:44:38;;;;;;;6.33;4.60;;;26.80;43.30;;;;;;5033631;28;20433;-71
2023/07/07 09:47:13;;;;;;;8.57;4.33;;;27.00;41.10;;;;;;5033562;28;20454;-71
2023/07/07 09:49:45;;;;;;;6.93;5.80;;;27.00;42.30;;;;;;5033331;28;20469;-71
2023/07/07 09:52:29;;;;;;;8.07;5.93;;;27.20;40.70;;;;;;5033489;28;20840;-71
2023/07/07 09:55:03;;;;;;;5.77;4.67;;;27.30;41.00;;;;;;5033580;28;20435;-71
2023/07/07 09:57:41;;;;;;;7.00;4.77;;;27.40;40.80;;;;;;5032705;28;20442;-73
2023/07/07 10:00:16;;;;;;;10.27;5.30;;;27.50;41.50;;;;;;5033078;28;20436;-71
2023/07/07 10:02:45;;;;;;;10.33;4.93;;;27.60;41.20;;;;;;5033145;28;20430;-68
2023/07/07 10:05:17;;;;;;;8.00;5.13;;;27.70;39.70;;;;;;5033286;28;20431;-68
2023/07/07 10:07:46;;;;;;;9.73;5.23;;;27.80;39.60;;;;;;5033314;28;20480;-69
2023/07/07 10:10:14;;;;;;;6.97;4.87;;;27.90;39.40;;;;;;5033043;28;20477;-68
2023/07/07 10:12:42;;;;;;;7.93;4.80;;;28.00;38.30;;;;;;5032890;28;20925;-68
2023/07/07 10:15:36;;;;;;;8.43;4.40;;;28.20;39.50;;;;;;5032953;28;20473;-68
2023/07/07 10:18:12;;;;;;;8.33;5.43;;;28.30;39.70;;;;;;5024997;28;20855;-68
2023/07/07 10:20:40;;;;;;;8.50;5.13;;;28.40;39.30;;;;;;5032936;28;20952;-69
2023/07/07 10:23:12;;;;;;;6.63;4.30;;;28.50;38.10;;;;;;5033198;28;20434;-68
2023/07/07 10:25:40;;;;;;;8.83;4.43;;;28.60;37.90;;;;;;5033229;28;20422;-68
2023/07/07 10:28:11;;;;;;;6.37;4.93;;;28.70;36.90;;;;;;5032810;28;20447;-68
2023/07/07 10:30:38;;;;;;;7.30;5.53;;;28.70;36.60;;;;;;5033303;28;20437;-68
2023/07/07 10:33:09;;;;;;;13.60;6.10;;;28.80;36.60;;;;;;5033172;28;20446;-69
2023/07/07 10:35:36;;;;;;;7.00;4.90;;;28.80;35.50;;;;;;5032882;28;20435;-70
2023/07/07 10:38:04;;;;;;;7.33;5.33;;;28.80;36.00;;;;;;5032771;28;20474;-71
2023/07/07 10:40:33;;;;;;;8.33;4.67;;;28.80;35.90;;;;;;5032762;28;20531;-70
2023/07/07 10:43:00;;;;;;;8.43;5.47;;;28.90;35.20;;;;;;5034243;28;20452;-71
2023/07/07 10:45:28;;;;;;;8.37;5.50;;;28.90;35.50;;;;;;5036423;28;20473;-71
2023/07/07 10:47:55;;;;;;;9.53;6.30;;;28.90;34.70;;;;;;5036817;28;20441;-70
2023/07/07 10:50:25;;;;;;;7.07;5.03;;;28.90;35.30;;;;;;5036685;28;20875;-71
2023/07/07 10:53:18;;;;;;;6.77;4.77;;;29.00;35.80;;;;;;5036504;28;20438;-70
2023/07/07 10:56:03;;;;;;;7.67;4.90;;;29.10;34.70;;;;;;5036543;28;20908;-71
2023/07/07 10:58:41;;;;;;;7.00;5.03;;;29.10;34.90;;;;;;5036108;28;20458;-68
2023/07/07 11:01:21;;;;;;;7.80;5.47;;;29.20;35.80;;;;;;5035973;28;20983;-70
2023/07/07 11:04:10;;;;;;;7.77;5.10;;;29.30;34.30;;;;;;5036303;28;20438;-70
2023/07/07 11:06:46;;;;;;;13.13;5.90;;;29.40;34.80;;;;;;5033236;28;20884;-70
2023/07/07 11:09:29;;;;;;;6.50;4.50;;;29.50;34.50;;;;;;5035710;28;20430;-70
2023/07/07 11:12:05;;;;;;;7.50;4.77;;;29.60;34.80;;;;;;5022977;28;20429;-70
2023/07/07 11:14:45;;;;;;;9.23;4.67;;;29.70;32.30;;;;;;5017342;28;20431;-70
2023/07/07 11:17:25;;;;;;;8.73;5.17;;;29.70;31.30;;;;;;5016184;28;20485;-70
2023/07/07 11:20:11;;;;;;;9.23;5.50;;;29.60;31.90;;;;;;5030335;28;20543;-70
2023/07/07 11:23:03;;;;;;;10.47;5.50;;;29.60;30.70;;;;;;5035880;28;20473;-70
2023/07/07 11:25:38;;;;;;;7.50;4.43;;;29.50;31.00;;;;;;5035573;28;20469;-70
2023/07/07 11:28:17;;;;;;;8.10;4.93;;;29.60;32.00;;;;;;5035862;28;20430;-70
2023/07/07 11:30:52;;;;;;;5.70;4.20;;;29.50;31.30;;;;;;5025013;28;20435;-70
2023/07/07 11:33:35;;;;;;;9.87;5.53;;;29.50;32.20;;;;;;5021482;28;20916;-70
2023/07/07 11:36:31;;;;;;;10.90;5.60;;;29.60;32.40;;;;;;5034244;28;20423;-70
2023/07/07 11:39:14;;;;;;;8.97;5.57;;;29.60;31.40;;;;;;5033062;28;20956;-70
2023/07/07 11:41:58;;;;;;;7.23;5.40;;;29.60;31.20;;;;;;5027908;28;20549;-70
2023/07/07 11:44:47;;;;;;;6.23;4.43;;;29.70;30.80;;;;;;5015520;28;20485;-70
2023/07/07 11:47:34;;;;;;;12.43;5.20;;;29.70;29.70;;;;;;5023315;28;20770;-70
2023/07/07 11:50:17;;;;;;;8.47;5.60;;;29.70;31.50;;;;;;5034365;28;20524;-70
2023/07/07 11:53:01;;;;;;;8.60;4.90;;;29.80;32.40;;;;;;5030292;28;20505;-70
2023/07/07 11:55:45;;;;;;;9.07;5.20;;;29.90;30.70;;;;;;5015807;28;20794;-70
2023/07/07 11:58:22;;;;;;;7.30;5.10;;;29.90;30.60;;;;;;5015565;28;20431;-70
2023/07/07 12:00:54;;;;;;;11.00;6.40;;;29.90;29.30;;;;;;5015211;28;20906;-71
2023/07/07 12:03:35;;;;;;;8.20;5.20;;;29.90;29.80;;;;;;5022703;28;20837;-72
2023/07/07 12:06:07;;;;;;;11.63;4.67;;;29.90;29.90;;;;;;5015334;28;20915;-71
2023/07/07 12:08:44;;;;;;;9.30;6.20;;;30.00;29.40;;;;;;5016208;28;20826;-71
2023/07/07 12:11:14;;;;;;;10.00;4.30;;;30.00;29.30;;;;;;5022061;28;20448;-70
2023/07/07 12:13:55;;;;;;;6.17;4.43;;;30.00;29.40;;;;;;5035145;28;20427;-70
2023/07/07 12:16:25;;;;;;;7.40;4.47;;;30.00;30.40;;;;;;5035095;28;20430;-70
2023/07/07 12:18:56;;;;;;;10.13;5.30;;;30.00;30.00;;;;;;5034580;28;20438;-70
2023/07/07 12:21:32;;;;;;;6.43;4.60;;;30.10;30.40;;;;;;5034817;28;20517;-70
2023/07/07 12:24:03;;;;;;;7.30;4.53;;;30.20;30.40;;;;;;5034952;28;20469;-70
2023/07/07 12:26:33;;;;;;;6.60;4.63;;;30.30;29.50;;;;;;5035097;28;20484;-70
2023/07/07 12:29:02;;;;;;;7.40;4.37;;;30.30;29.50;;;;;;5034484;28;20909;-70
2023/07/07 12:31:31;;;;;;;7.50;4.70;;;30.40;30.10;;;;;;5032412;28;20450;-70
2023/07/07 12:33:58;;;;;;;7.40;4.60;;;30.40;29.00;;;;;;5034451;28;20426;-71
2023/07/07 12:36:29;;;;;;;8.30;4.93;;;30.40;28.80;;;;;;5034521;28;20438;-70
2023/07/07 12:38:59;;;;;;;10.20;4.50;;;30.40;28.10;;;;;;5034341;28;20857;-70
2023/07/07 12:41:28;;;;;;;9.27;4.73;;;30.40;27.90;;;;;;5034174;28;20472;-70
2023/07/07 12:43:59;;;;;;;7.63;5.03;;;30.40;28.70;;;;;;5034130;28;20448;-71
2023/07/07 12:46:28;;;;;;;5.97;4.20;;;30.40;29.30;;;;;;5034389;28;20476;-70
2023/07/07 12:48:58;;;;;;;8.67;5.17;;;30.40;28.10;;;;;;5034385;28;20442;-70
2023/07/07 12:51:29;;;;;;;9.17;4.87;;;30.40;29.00;;;;;;5034016;28;20437;-70
2023/07/07 12:53:56;;;;;;;9.77;4.07;;;30.50;29.50;;;;;;5033933;28;20466;-70
2023/07/07 12:56:25;;;;;;;6.63;4.77;;;30.50;28.10;;;;;;5034216;28;20446;-70
2023/07/07 12:58:53;;;;;;;6.10;4.30;;;30.40;27.80;;;;;;5033584;28;20442;-70
2023/07/07 13:01:31;;;;;;;10.47;4.90;;;30.40;28.00;;;;;;5034054;28;20524;-70
2023/07/07 13:04:17;;;;;;;7.70;4.40;;;30.40;27.10;;;;;;5033899;28;20418;-70